sensor_id;sensor_type;location;lat;lon;timestamp;temperature;humidity
37204;DHT22;23098;48.054;10.636;2023-12-20T00:01:29;5.30;90.80
37204;DHT22;23098;48.054;10.636;2023-12-20T00:03:54;5.40;90.90
37204;DHT22;23098;48.054;10.636;2023-12-20T00:06:20;5.30;91.00
37204;DHT22;23098;48.054;10.636;2023-12-20T00:08:45;5.30;91.20
37204;DHT22;23098;48.054;10.636;2023-12-20T00:11:11;5.30;91.10
37204;DHT22;23098;48.054;10.636;2023-12-20T00:13:36;5.40;90.90
37204;DHT22;23098;48.054;10.636;2023-12-20T00:16:02;5.50;90.90
37204;DHT22;23098;48.054;10.636;2023-12-20T00:18:27;5.40;91.10
37204;DHT22;23098;48.054;10.636;2023-12-20T00:20:53;5.40;91.50
37204;DHT22;23098;48.054;10.636;2023-12-20T00:23:18;5.40;91.60
37204;DHT22;23098;48.054;10.636;2023-12-20T00:25:44;5.30;92.00
37204;DHT22;23098;48.054;10.636;2023-12-20T00:28:10;5.30;92.30
37204;DHT22;23098;48.054;10.636;2023-12-20T00:30:37;5.20;92.60
37204;DHT22;23098;48.054;10.636;2023-12-20T00:33:02;5.30;92.80
37204;DHT22;23098;48.054;10.636;2023-12-20T00:35:28;5.20;93.00
37204;DHT22;23098;48.054;10.636;2023-12-20T00:37:55;5.30;93.10
37204;DHT22;23098;48.054;10.636;2023-12-20T00:40:20;5.20;93.20
37204;DHT22;23098;48.054;10.636;2023-12-20T00:42:47;5.30;93.20
37204;DHT22;23098;48.054;10.636;2023-12-20T00:45:13;5.40;93.30
37204;DHT22;23098;48.054;10.636;2023-12-20T00:47:40;5.40;93.10
37204;DHT22;23098;48.054;10.636;2023-12-20T00:50:06;5.40;93.40
37204;DHT22;23098;48.054;10.636;2023-12-20T00:52:31;5.40;93.20
37204;DHT22;23098;48.054;10.636;2023-12-20T00:54:57;5.50;92.90
37204;DHT22;23098;48.054;10.636;2023-12-20T00:57:22;5.50;93.00
37204;DHT22;23098;48.054;10.636;2023-12-20T00:59:48;5.60;92.90
37204;DHT22;23098;48.054;10.636;2023-12-20T01:02:15;5.50;93.00
37204;DHT22;23098;48.054;10.636;2023-12-20T01:04:41;5.50;93.30
37204;DHT22;23098;48.054;10.636;2023-12-20T01:07:06;5.40;93.60
37204;DHT22;23098;48.054;10.636;2023-12-20T01:09:32;5.40;93.80
37204;DHT22;23098;48.054;10.636;2023-12-20T01:11:57;5.50;93.90
37204;DHT22;23098;48.054;10.636;2023-12-20T01:14:22;5.50;94.20
37204;DHT22;23098;48.054;10.636;2023-12-20T01:16:48;5.50;94.20
37204;DHT22;23098;48.054;10.636;2023-12-20T01:19:13;5.50;94.40
37204;DHT22;23098;48.054;10.636;2023-12-20T01:21:40;5.60;94.70
37204;DHT22;23098;48.054;10.636;2023-12-20T01:24:06;5.50;95.00
37204;DHT22;23098;48.054;10.636;2023-12-20T01:26:31;5.50;95.20
37204;DHT22;23098;48.054;10.636;2023-12-20T01:28:57;5.60;95.40
37204;DHT22;23098;48.054;10.636;2023-12-20T01:31:22;5.60;95.60
37204;DHT22;23098;48.054;10.636;2023-12-20T01:33:48;5.50;95.90
37204;DHT22;23098;48.054;10.636;2023-12-20T01:36:13;5.50;96.30
37204;DHT22;23098;48.054;10.636;2023-12-20T01:38:39;5.40;96.60
37204;DHT22;23098;48.054;10.636;2023-12-20T01:41:04;5.40;96.90
37204;DHT22;23098;48.054;10.636;2023-12-20T01:43:30;5.40;97.00
37204;DHT22;23098;48.054;10.636;2023-12-20T01:45:59;5.40;97.10
37204;DHT22;23098;48.054;10.636;2023-12-20T01:48:25;5.50;97.30
37204;DHT22;23098;48.054;10.636;2023-12-20T01:50:53;5.50;97.40
37204;DHT22;23098;48.054;10.636;2023-12-20T01:53:20;5.50;97.20
37204;DHT22;23098;48.054;10.636;2023-12-20T01:55:48;5.60;96.90
37204;DHT22;23098;48.054;10.636;2023-12-20T01:58:14;5.50;97.00
37204;DHT22;23098;48.054;10.636;2023-12-20T02:00:40;5.60;97.00
37204;DHT22;23098;48.054;10.636;2023-12-20T02:03:06;5.50;97.10
37204;DHT22;23098;48.054;10.636;2023-12-20T02:05:33;5.40;97.40
37204;DHT22;23098;48.054;10.636;2023-12-20T02:07:59;5.40;97.70
37204;DHT22;23098;48.054;10.636;2023-12-20T02:10:24;5.50;97.80
37204;DHT22;23098;48.054;10.636;2023-12-20T02:12:50;5.40;98.00
37204;DHT22;23098;48.054;10.636;2023-12-20T02:15:16;5.40;98.20
37204;DHT22;23098;48.054;10.636;2023-12-20T02:17:42;5.40;98.40
37204;DHT22;23098;48.054;10.636;2023-12-20T02:20:08;5.40;98.60
37204;DHT22;23098;48.054;10.636;2023-12-20T02:22:34;5.30;98.70
37204;DHT22;23098;48.054;10.636;2023-12-20T02:24:59;5.30;98.90
37204;DHT22;23098;48.054;10.636;2023-12-20T02:27:25;5.30;99.20
37204;DHT22;23098;48.054;10.636;2023-12-20T02:29:52;5.30;99.40
37204;DHT22;23098;48.054;10.636;2023-12-20T02:32:17;5.30;99.50
37204;DHT22;23098;48.054;10.636;2023-12-20T02:34:46;5.30;99.70
37204;DHT22;23098;48.054;10.636;2023-12-20T02:37:12;5.20;99.90
37204;DHT22;23098;48.054;10.636;2023-12-20T02:39:37;5.20;99.90
37204;DHT22;23098;48.054;10.636;2023-12-20T02:42:03;5.20;99.90
37204;DHT22;23098;48.054;10.636;2023-12-20T02:44:29;5.20;99.90
37204;DHT22;23098;48.054;10.636;2023-12-20T02:46:54;5.30;99.90
37204;DHT22;23098;48.054;10.636;2023-12-20T02:49:20;5.30;99.90
37204;DHT22;23098;48.054;10.636;2023-12-20T02:51:46;5.30;99.90
37204;DHT22;23098;48.054;10.636;2023-12-20T02:54:12;5.30;99.90
37204;DHT22;23098;48.054;10.636;2023-12-20T02:56:38;5.30;99.90
37204;DHT22;23098;48.054;10.636;2023-12-20T02:59:04;5.40;99.90
37204;DHT22;23098;48.054;10.636;2023-12-20T03:01:31;5.40;99.90
37204;DHT22;23098;48.054;10.636;2023-12-20T03:03:57;5.40;99.90
37204;DHT22;23098;48.054;10.636;2023-12-20T03:06:22;5.30;99.90
37204;DHT22;23098;48.054;10.636;2023-12-20T03:08:48;5.20;99.90
37204;DHT22;23098;48.054;10.636;2023-12-20T03:11:13;5.10;99.90
37204;DHT22;23098;48.054;10.636;2023-12-20T03:13:39;5.10;99.90
37204;DHT22;23098;48.054;10.636;2023-12-20T03:16:11;5.10;99.90
37204;DHT22;23098;48.054;10.636;2023-12-20T03:18:37;5.00;99.90
37204;DHT22;23098;48.054;10.636;2023-12-20T03:21:05;4.90;99.90
37204;DHT22;23098;48.054;10.636;2023-12-20T03:23:30;4.90;99.90
37204;DHT22;23098;48.054;10.636;2023-12-20T03:25:58;4.80;99.90
37204;DHT22;23098;48.054;10.636;2023-12-20T03:28:23;4.70;99.90
37204;DHT22;23098;48.054;10.636;2023-12-20T03:30:49;4.70;99.90
37204;DHT22;23098;48.054;10.636;2023-12-20T03:33:15;4.60;99.90
37204;DHT22;23098;48.054;10.636;2023-12-20T03:35:40;4.60;99.90
37204;DHT22;23098;48.054;10.636;2023-12-20T03:38:06;4.50;99.90
37204;DHT22;23098;48.054;10.636;2023-12-20T03:40:32;4.50;99.90
37204;DHT22;23098;48.054;10.636;2023-12-20T03:42:57;4.40;99.90
37204;DHT22;23098;48.054;10.636;2023-12-20T03:45:23;4.40;99.90
37204;DHT22;23098;48.054;10.636;2023-12-20T03:47:48;4.30;99.90
37204;DHT22;23098;48.054;10.636;2023-12-20T03:50:14;4.40;99.90
37204;DHT22;23098;48.054;10.636;2023-12-20T03:52:39;4.40;99.90
37204;DHT22;23098;48.054;10.636;2023-12-20T03:55:05;4.30;99.90
37204;DHT22;23098;48.054;10.636;2023-12-20T03:57:31;4.30;99.90
37204;DHT22;23098;48.054;10.636;2023-12-20T03:59:56;4.30;99.90
37204;DHT22;23098;48.054;10.636;2023-12-20T04:02:22;4.30;99.90
37204;DHT22;23098;48.054;10.636;2023-12-20T04:04:47;4.30;99.90
37204;DHT22;23098;48.054;10.636;2023-12-20T04:07:13;4.30;99.90
37204;DHT22;23098;48.054;10.636;2023-12-20T04:09:38;4.30;99.90
37204;DHT22;23098;48.054;10.636;2023-12-20T04:12:05;4.30;99.90
37204;DHT22;23098;48.054;10.636;2023-12-20T04:14:31;4.30;99.90
37204;DHT22;23098;48.054;10.636;2023-12-20T04:16:57;4.30;99.90
37204;DHT22;23098;48.054;10.636;2023-12-20T04:19:22;4.30;99.90
37204;DHT22;23098;48.054;10.636;2023-12-20T04:21:48;4.30;99.90
37204;DHT22;23098;48.054;10.636;2023-12-20T04:24:13;4.30;99.90
37204;DHT22;23098;48.054;10.636;2023-12-20T04:26:39;4.30;99.90
37204;DHT22;23098;48.054;10.636;2023-12-20T04:29:04;4.30;99.90
37204;DHT22;23098;48.054;10.636;2023-12-20T04:31:30;4.20;99.90
37204;DHT22;23098;48.054;10.636;2023-12-20T04:33:55;4.20;99.90
37204;DHT22;23098;48.054;10.636;2023-12-20T04:36:21;4.20;99.90
37204;DHT22;23098;48.054;10.636;2023-12-20T04:38:47;4.20;99.90
37204;DHT22;23098;48.054;10.636;2023-12-20T04:41:12;4.20;99.90
37204;DHT22;23098;48.054;10.636;2023-12-20T04:43:41;4.20;99.90
37204;DHT22;23098;48.054;10.636;2023-12-20T04:46:06;4.20;99.90
37204;DHT22;23098;48.054;10.636;2023-12-20T04:48:32;4.20;99.90
37204;DHT22;23098;48.054;10.636;2023-12-20T04:50:57;4.20;99.90
37204;DHT22;23098;48.054;10.636;2023-12-20T04:53:23;4.20;99.90
37204;DHT22;23098;48.054;10.636;2023-12-20T04:55:48;4.20;99.90
37204;DHT22;23098;48.054;10.636;2023-12-20T04:58:14;4.20;99.90
37204;DHT22;23098;48.054;10.636;2023-12-20T05:00:39;4.20;99.90
37204;DHT22;23098;48.054;10.636;2023-12-20T05:03:05;4.10;99.90
37204;DHT22;23098;48.054;10.636;2023-12-20T05:05:31;4.10;99.90
37204;DHT22;23098;48.054;10.636;2023-12-20T05:07:57;4.10;99.90
37204;DHT22;23098;48.054;10.636;2023-12-20T05:10:22;4.10;99.90
37204;DHT22;23098;48.054;10.636;2023-12-20T05:12:48;4.00;99.90
37204;DHT22;23098;48.054;10.636;2023-12-20T05:15:13;3.90;99.90
37204;DHT22;23098;48.054;10.636;2023-12-20T05:17:40;3.90;99.90
37204;DHT22;23098;48.054;10.636;2023-12-20T05:20:06;3.90;99.90
37204;DHT22;23098;48.054;10.636;2023-12-20T05:22:32;3.80;99.90
37204;DHT22;23098;48.054;10.636;2023-12-20T05:24:58;3.80;99.90
37204;DHT22;23098;48.054;10.636;2023-12-20T05:27:23;3.80;99.90
37204;DHT22;23098;48.054;10.636;2023-12-20T05:29:49;3.80;99.90
37204;DHT22;23098;48.054;10.636;2023-12-20T05:32:16;3.80;99.90
37204;DHT22;23098;48.054;10.636;2023-12-20T05:34:41;3.80;99.90
37204;DHT22;23098;48.054;10.636;2023-12-20T05:37:07;3.70;99.90
37204;DHT22;23098;48.054;10.636;2023-12-20T05:39:32;3.70;99.90
37204;DHT22;23098;48.054;10.636;2023-12-20T05:41:58;3.70;99.90
37204;DHT22;23098;48.054;10.636;2023-12-20T05:44:23;3.70;99.90
37204;DHT22;23098;48.054;10.636;2023-12-20T05:46:49;3.70;99.90
37204;DHT22;23098;48.054;10.636;2023-12-20T05:49:14;3.60;99.90
37204;DHT22;23098;48.054;10.636;2023-12-20T05:51:40;3.60;99.90
37204;DHT22;23098;48.054;10.636;2023-12-20T05:54:06;3.60;99.90
37204;DHT22;23098;48.054;10.636;2023-12-20T05:56:31;3.60;99.90
37204;DHT22;23098;48.054;10.636;2023-12-20T05:58:57;3.60;99.90
37204;DHT22;23098;48.054;10.636;2023-12-20T06:01:25;3.60;99.90
37204;DHT22;23098;48.054;10.636;2023-12-20T06:03:50;3.60;99.90
37204;DHT22;23098;48.054;10.636;2023-12-20T06:06:16;3.50;99.90
37204;DHT22;23098;48.054;10.636;2023-12-20T06:08:43;3.50;99.90
37204;DHT22;23098;48.054;10.636;2023-12-20T06:11:08;3.50;99.90
37204;DHT22;23098;48.054;10.636;2023-12-20T06:13:35;3.50;99.90
37204;DHT22;23098;48.054;10.636;2023-12-20T06:16:01;3.50;99.90
37204;DHT22;23098;48.054;10.636;2023-12-20T06:18:26;3.50;99.90
37204;DHT22;23098;48.054;10.636;2023-12-20T06:20:52;3.50;99.90
37204;DHT22;23098;48.054;10.636;2023-12-20T06:23:17;3.40;99.90
37204;DHT22;23098;48.054;10.636;2023-12-20T06:25:44;3.40;99.90
37204;DHT22;23098;48.054;10.636;2023-12-20T06:28:09;3.40;99.90
37204;DHT22;23098;48.054;10.636;2023-12-20T06:30:35;3.30;99.90
37204;DHT22;23098;48.054;10.636;2023-12-20T06:33:01;3.30;99.90
37204;DHT22;23098;48.054;10.636;2023-12-20T06:35:27;3.30;99.90
37204;DHT22;23098;48.054;10.636;2023-12-20T06:37:52;3.30;99.90
37204;DHT22;23098;48.054;10.636;2023-12-20T06:40:18;3.20;99.90
37204;DHT22;23098;48.054;10.636;2023-12-20T06:42:44;3.20;99.90
37204;DHT22;23098;48.054;10.636;2023-12-20T06:45:10;3.10;99.90
37204;DHT22;23098;48.054;10.636;2023-12-20T06:47:35;3.10;99.90
37204;DHT22;23098;48.054;10.636;2023-12-20T06:50:01;3.10;99.90
37204;DHT22;23098;48.054;10.636;2023-12-20T06:52:26;3.10;99.90
37204;DHT22;23098;48.054;10.636;2023-12-20T06:54:52;3.00;99.90
37204;DHT22;23098;48.054;10.636;2023-12-20T06:57:18;3.00;99.90
37204;DHT22;23098;48.054;10.636;2023-12-20T06:59:45;3.00;99.90
37204;DHT22;23098;48.054;10.636;2023-12-20T07:02:10;3.00;99.90
37204;DHT22;23098;48.054;10.636;2023-12-20T07:04:40;3.00;99.90
37204;DHT22;23098;48.054;10.636;2023-12-20T07:07:06;3.10;99.90
37204;DHT22;23098;48.054;10.636;2023-12-20T07:09:32;3.10;99.90
37204;DHT22;23098;48.054;10.636;2023-12-20T07:11:58;3.10;99.90
37204;DHT22;23098;48.054;10.636;2023-12-20T07:14:24;3.10;99.90
37204;DHT22;23098;48.054;10.636;2023-12-20T07:16:49;3.10;99.90
37204;DHT22;23098;48.054;10.636;2023-12-20T07:19:15;3.20;99.90
37204;DHT22;23098;48.054;10.636;2023-12-20T07:21:40;3.20;99.90
37204;DHT22;23098;48.054;10.636;2023-12-20T07:24:06;3.20;99.90
37204;DHT22;23098;48.054;10.636;2023-12-20T07:26:31;3.20;99.90
37204;DHT22;23098;48.054;10.636;2023-12-20T07:28:57;3.20;99.90
37204;DHT22;23098;48.054;10.636;2023-12-20T07:31:24;3.20;99.90
37204;DHT22;23098;48.054;10.636;2023-12-20T07:33:49;3.30;99.90
37204;DHT22;23098;48.054;10.636;2023-12-20T07:36:15;3.30;99.90
37204;DHT22;23098;48.054;10.636;2023-12-20T07:38:40;3.30;99.90
37204;DHT22;23098;48.054;10.636;2023-12-20T07:41:09;3.30;99.90
37204;DHT22;23098;48.054;10.636;2023-12-20T07:43:35;3.40;99.90
37204;DHT22;23098;48.054;10.636;2023-12-20T07:46:07;3.40;99.90
37204;DHT22;23098;48.054;10.636;2023-12-20T07:48:35;3.40;99.90
37204;DHT22;23098;48.054;10.636;2023-12-20T07:51:01;3.40;99.90
37204;DHT22;23098;48.054;10.636;2023-12-20T07:53:26;3.50;99.90
37204;DHT22;23098;48.054;10.636;2023-12-20T07:55:52;3.50;99.90
37204;DHT22;23098;48.054;10.636;2023-12-20T07:58:18;3.50;99.90
37204;DHT22;23098;48.054;10.636;2023-12-20T08:00:43;3.60;99.90
37204;DHT22;23098;48.054;10.636;2023-12-20T08:03:09;3.60;99.90
37204;DHT22;23098;48.054;10.636;2023-12-20T08:05:35;3.70;99.90
37204;DHT22;23098;48.054;10.636;2023-12-20T08:08:00;3.70;99.90
37204;DHT22;23098;48.054;10.636;2023-12-20T08:10:26;3.70;99.90
37204;DHT22;23098;48.054;10.636;2023-12-20T08:12:54;3.70;99.90
37204;DHT22;23098;48.054;10.636;2023-12-20T08:15:20;3.70;99.90
37204;DHT22;23098;48.054;10.636;2023-12-20T08:17:45;3.70;99.90
37204;DHT22;23098;48.054;10.636;2023-12-20T08:20:11;3.80;99.90
37204;DHT22;23098;48.054;10.636;2023-12-20T08:22:36;3.80;99.90
37204;DHT22;23098;48.054;10.636;2023-12-20T08:25:02;3.80;99.90
37204;DHT22;23098;48.054;10.636;2023-12-20T08:27:28;3.90;99.90
37204;DHT22;23098;48.054;10.636;2023-12-20T08:29:54;3.90;99.90
37204;DHT22;23098;48.054;10.636;2023-12-20T08:32:19;4.00;99.90
37204;DHT22;23098;48.054;10.636;2023-12-20T08:34:45;4.00;99.90
37204;DHT22;23098;48.054;10.636;2023-12-20T08:37:11;4.00;99.90
37204;DHT22;23098;48.054;10.636;2023-12-20T08:39:36;4.00;99.90
37204;DHT22;23098;48.054;10.636;2023-12-20T08:42:02;4.00;99.90
37204;DHT22;23098;48.054;10.636;2023-12-20T08:44:28;4.00;99.90
37204;DHT22;23098;48.054;10.636;2023-12-20T08:46:53;4.10;99.90
37204;DHT22;23098;48.054;10.636;2023-12-20T08:49:22;4.10;99.90
37204;DHT22;23098;48.054;10.636;2023-12-20T08:51:47;4.10;99.90
37204;DHT22;23098;48.054;10.636;2023-12-20T08:54:13;4.10;99.90
37204;DHT22;23098;48.054;10.636;2023-12-20T08:56:39;4.20;99.90
37204;DHT22;23098;48.054;10.636;2023-12-20T08:59:04;4.20;99.90
37204;DHT22;23098;48.054;10.636;2023-12-20T09:01:30;4.20;99.90
37204;DHT22;23098;48.054;10.636;2023-12-20T09:03:59;4.20;99.90
37204;DHT22;23098;48.054;10.636;2023-12-20T09:06:24;4.30;99.90
37204;DHT22;23098;48.054;10.636;2023-12-20T09:11:35;4.30;99.90
37204;DHT22;23098;48.054;10.636;2023-12-20T09:14:00;4.40;99.90
37204;DHT22;23098;48.054;10.636;2023-12-20T09:16:26;4.40;99.90
37204;DHT22;23098;48.054;10.636;2023-12-20T09:18:51;4.40;99.90
37204;DHT22;23098;48.054;10.636;2023-12-20T09:21:17;4.40;99.90
37204;DHT22;23098;48.054;10.636;2023-12-20T09:23:42;4.40;99.90
37204;DHT22;23098;48.054;10.636;2023-12-20T09:26:08;4.40;99.90
37204;DHT22;23098;48.054;10.636;2023-12-20T09:28:34;4.50;99.90
37204;DHT22;23098;48.054;10.636;2023-12-20T09:31:03;4.50;99.90
37204;DHT22;23098;48.054;10.636;2023-12-20T09:33:30;4.50;99.90
37204;DHT22;23098;48.054;10.636;2023-12-20T09:35:56;4.60;99.90
37204;DHT22;23098;48.054;10.636;2023-12-20T09:38:21;4.60;99.90
37204;DHT22;23098;48.054;10.636;2023-12-20T09:40:48;4.60;99.90
37204;DHT22;23098;48.054;10.636;2023-12-20T09:43:19;4.60;99.90
37204;DHT22;23098;48.054;10.636;2023-12-20T09:45:48;4.70;99.90
37204;DHT22;23098;48.054;10.636;2023-12-20T09:48:14;4.70;99.90
37204;DHT22;23098;48.054;10.636;2023-12-20T09:50:43;4.80;99.90
37204;DHT22;23098;48.054;10.636;2023-12-20T09:53:16;4.80;99.90
37204;DHT22;23098;48.054;10.636;2023-12-20T09:55:43;4.80;99.90
37204;DHT22;23098;48.054;10.636;2023-12-20T09:58:08;4.80;99.90
37204;DHT22;23098;48.054;10.636;2023-12-20T10:00:37;4.80;99.90
37204;DHT22;23098;48.054;10.636;2023-12-20T10:03:03;4.80;99.90
37204;DHT22;23098;48.054;10.636;2023-12-20T10:05:32;4.80;99.90
37204;DHT22;23098;48.054;10.636;2023-12-20T10:07:58;4.70;99.90
37204;DHT22;23098;48.054;10.636;2023-12-20T10:10:25;4.70;99.90
37204;DHT22;23098;48.054;10.636;2023-12-20T10:13:08;4.80;99.90
37204;DHT22;23098;48.054;10.636;2023-12-20T10:15:34;4.80;99.90
37204;DHT22;23098;48.054;10.636;2023-12-20T10:18:01;4.90;99.90
37204;DHT22;23098;48.054;10.636;2023-12-20T10:20:27;4.90;99.90
37204;DHT22;23098;48.054;10.636;2023-12-20T10:22:57;5.00;99.90
37204;DHT22;23098;48.054;10.636;2023-12-20T10:25:24;5.00;99.90
37204;DHT22;23098;48.054;10.636;2023-12-20T10:28:08;5.00;99.90
37204;DHT22;23098;48.054;10.636;2023-12-20T10:30:34;5.10;99.90
37204;DHT22;23098;48.054;10.636;2023-12-20T10:32:59;5.20;99.90
37204;DHT22;23098;48.054;10.636;2023-12-20T10:35:25;5.40;99.90
37204;DHT22;23098;48.054;10.636;2023-12-20T10:37:55;5.50;99.90
37204;DHT22;23098;48.054;10.636;2023-12-20T10:40:22;5.60;99.90
37204;DHT22;23098;48.054;10.636;2023-12-20T10:42:48;5.50;99.90
37204;DHT22;23098;48.054;10.636;2023-12-20T10:45:15;5.50;99.90
37204;DHT22;23098;48.054;10.636;2023-12-20T10:47:44;5.40;99.90
37204;DHT22;23098;48.054;10.636;2023-12-20T10:50:11;5.30;99.90
37204;DHT22;23098;48.054;10.636;2023-12-20T10:52:37;5.40;99.90
37204;DHT22;23098;48.054;10.636;2023-12-20T10:55:04;5.50;99.90
37204;DHT22;23098;48.054;10.636;2023-12-20T10:57:30;5.40;99.90
37204;DHT22;23098;48.054;10.636;2023-12-20T11:00:00;5.50;99.90
37204;DHT22;23098;48.054;10.636;2023-12-20T11:02:32;5.40;99.90
37204;DHT22;23098;48.054;10.636;2023-12-20T11:05:28;5.40;99.90
37204;DHT22;23098;48.054;10.636;2023-12-20T11:08:01;5.40;99.90
37204;DHT22;23098;48.054;10.636;2023-12-20T11:13:17;5.50;99.90
37204;DHT22;23098;48.054;10.636;2023-12-20T11:15:45;5.60;99.90
37204;DHT22;23098;48.054;10.636;2023-12-20T11:18:11;5.70;99.90
37204;DHT22;23098;48.054;10.636;2023-12-20T11:20:41;6.00;99.90
37204;DHT22;23098;48.054;10.636;2023-12-20T11:23:08;6.00;99.90
37204;DHT22;23098;48.054;10.636;2023-12-20T11:25:46;6.00;99.90
37204;DHT22;23098;48.054;10.636;2023-12-20T11:28:13;5.90;99.90
37204;DHT22;23098;48.054;10.636;2023-12-20T11:30:54;6.10;99.90
37204;DHT22;23098;48.054;10.636;2023-12-20T11:33:30;6.30;99.90
37204;DHT22;23098;48.054;10.636;2023-12-20T11:35:57;6.20;99.90
37204;DHT22;23098;48.054;10.636;2023-12-20T11:38:23;6.10;99.90
37204;DHT22;23098;48.054;10.636;2023-12-20T11:40:50;6.00;99.90
37204;DHT22;23098;48.054;10.636;2023-12-20T11:43:38;5.90;99.90
37204;DHT22;23098;48.054;10.636;2023-12-20T11:46:08;5.80;99.90
37204;DHT22;23098;48.054;10.636;2023-12-20T11:48:38;5.70;99.90
37204;DHT22;23098;48.054;10.636;2023-12-20T11:51:12;5.70;99.90
37204;DHT22;23098;48.054;10.636;2023-12-20T11:53:38;5.70;99.90
37204;DHT22;23098;48.054;10.636;2023-12-20T11:56:07;5.70;99.90
37204;DHT22;23098;48.054;10.636;2023-12-20T11:58:33;5.60;99.90
37204;DHT22;23098;48.054;10.636;2023-12-20T12:00:59;5.70;99.90
37204;DHT22;23098;48.054;10.636;2023-12-20T12:03:25;5.70;99.90
37204;DHT22;23098;48.054;10.636;2023-12-20T12:05:50;5.70;99.90
37204;DHT22;23098;48.054;10.636;2023-12-20T12:08:19;5.70;99.90
37204;DHT22;23098;48.054;10.636;2023-12-20T12:10:45;5.60;99.90
37204;DHT22;23098;48.054;10.636;2023-12-20T12:13:10;5.70;99.90
37204;DHT22;23098;48.054;10.636;2023-12-20T12:15:37;5.90;99.90
37204;DHT22;23098;48.054;10.636;2023-12-20T12:18:03;5.90;99.90
37204;DHT22;23098;48.054;10.636;2023-12-20T12:20:29;6.00;99.90
37204;DHT22;23098;48.054;10.636;2023-12-20T12:23:03;6.30;99.90
37204;DHT22;23098;48.054;10.636;2023-12-20T12:25:30;6.70;99.90
37204;DHT22;23098;48.054;10.636;2023-12-20T12:27:59;6.70;99.90
37204;DHT22;23098;48.054;10.636;2023-12-20T12:30:25;6.70;99.90
37204;DHT22;23098;48.054;10.636;2023-12-20T12:32:52;6.70;99.90
37204;DHT22;23098;48.054;10.636;2023-12-20T12:35:18;6.50;99.90
37204;DHT22;23098;48.054;10.636;2023-12-20T12:37:45;6.30;99.90
37204;DHT22;23098;48.054;10.636;2023-12-20T12:40:12;6.40;99.90
37204;DHT22;23098;48.054;10.636;2023-12-20T12:42:39;6.20;99.90
37204;DHT22;23098;48.054;10.636;2023-12-20T12:45:06;6.10;99.90
37204;DHT22;23098;48.054;10.636;2023-12-20T12:47:32;5.90;99.90
37204;DHT22;23098;48.054;10.636;2023-12-20T12:49:59;5.80;99.90
37204;DHT22;23098;48.054;10.636;2023-12-20T12:52:24;5.50;99.90
37204;DHT22;23098;48.054;10.636;2023-12-20T12:54:53;5.20;99.90
37204;DHT22;23098;48.054;10.636;2023-12-20T12:57:19;4.90;99.90
37204;DHT22;23098;48.054;10.636;2023-12-20T12:59:45;4.80;99.90
37204;DHT22;23098;48.054;10.636;2023-12-20T13:02:13;4.70;99.90
37204;DHT22;23098;48.054;10.636;2023-12-20T13:04:39;4.70;99.90
37204;DHT22;23098;48.054;10.636;2023-12-20T13:07:06;4.60;99.90
37204;DHT22;23098;48.054;10.636;2023-12-20T13:09:31;4.60;99.90
37204;DHT22;23098;48.054;10.636;2023-12-20T13:11:57;4.50;99.90
37204;DHT22;23098;48.054;10.636;2023-12-20T13:14:23;4.50;99.90
37204;DHT22;23098;48.054;10.636;2023-12-20T13:16:49;4.50;99.90
37204;DHT22;23098;48.054;10.636;2023-12-20T13:19:15;4.40;99.90
37204;DHT22;23098;48.054;10.636;2023-12-20T13:21:40;4.40;99.90
37204;DHT22;23098;48.054;10.636;2023-12-20T13:24:06;4.40;99.90
37204;DHT22;23098;48.054;10.636;2023-12-20T13:26:32;4.40;99.90
37204;DHT22;23098;48.054;10.636;2023-12-20T13:28:58;4.40;99.90
37204;DHT22;23098;48.054;10.636;2023-12-20T13:31:24;4.40;99.90
37204;DHT22;23098;48.054;10.636;2023-12-20T13:33:49;4.40;99.90
37204;DHT22;23098;48.054;10.636;2023-12-20T13:36:16;4.40;99.90
37204;DHT22;23098;48.054;10.636;2023-12-20T13:38:43;4.30;99.90
37204;DHT22;23098;48.054;10.636;2023-12-20T13:41:08;4.40;99.90
37204;DHT22;23098;48.054;10.636;2023-12-20T13:43:34;4.50;99.90
37204;DHT22;23098;48.054;10.636;2023-12-20T13:46:00;4.40;99.90
37204;DHT22;23098;48.054;10.636;2023-12-20T13:48:25;4.40;99.90
37204;DHT22;23098;48.054;10.636;2023-12-20T13:50:51;4.40;99.90
37204;DHT22;23098;48.054;10.636;2023-12-20T13:53:16;4.40;99.90
37204;DHT22;23098;48.054;10.636;2023-12-20T13:55:42;4.40;99.90
37204;DHT22;23098;48.054;10.636;2023-12-20T13:58:08;4.50;99.90
37204;DHT22;23098;48.054;10.636;2023-12-20T14:00:35;4.70;99.90
37204;DHT22;23098;48.054;10.636;2023-12-20T14:03:02;4.70;99.90
37204;DHT22;23098;48.054;10.636;2023-12-20T14:05:28;4.70;99.90
37204;DHT22;23098;48.054;10.636;2023-12-20T14:07:54;4.70;99.90
37204;DHT22;23098;48.054;10.636;2023-12-20T14:10:19;4.60;99.90
37204;DHT22;23098;48.054;10.636;2023-12-20T14:12:45;4.60;99.90
37204;DHT22;23098;48.054;10.636;2023-12-20T14:15:11;4.60;99.90
37204;DHT22;23098;48.054;10.636;2023-12-20T14:17:39;4.60;99.90
37204;DHT22;23098;48.054;10.636;2023-12-20T14:20:08;4.50;99.90
37204;DHT22;23098;48.054;10.636;2023-12-20T14:22:34;4.50;99.90
37204;DHT22;23098;48.054;10.636;2023-12-20T14:25:00;4.40;99.90
37204;DHT22;23098;48.054;10.636;2023-12-20T14:27:26;4.30;99.90
37204;DHT22;23098;48.054;10.636;2023-12-20T14:29:55;4.30;99.90
37204;DHT22;23098;48.054;10.636;2023-12-20T14:32:21;4.30;99.90
37204;DHT22;23098;48.054;10.636;2023-12-20T14:34:46;4.20;99.90
37204;DHT22;23098;48.054;10.636;2023-12-20T14:37:12;4.30;99.90
37204;DHT22;23098;48.054;10.636;2023-12-20T14:39:38;4.30;99.90
37204;DHT22;23098;48.054;10.636;2023-12-20T14:42:10;4.30;99.90
37204;DHT22;23098;48.054;10.636;2023-12-20T14:44:43;4.30;99.90
37204;DHT22;23098;48.054;10.636;2023-12-20T14:47:08;4.20;99.90
37204;DHT22;23098;48.054;10.636;2023-12-20T14:49:34;4.10;99.90
37204;DHT22;23098;48.054;10.636;2023-12-20T14:51:59;4.10;99.90
37204;DHT22;23098;48.054;10.636;2023-12-20T14:54:25;4.00;99.90
37204;DHT22;23098;48.054;10.636;2023-12-20T14:56:51;4.00;99.90
37204;DHT22;23098;48.054;10.636;2023-12-20T14:59:16;4.00;99.90
37204;DHT22;23098;48.054;10.636;2023-12-20T15:01:43;3.90;99.90
37204;DHT22;23098;48.054;10.636;2023-12-20T15:04:09;3.80;99.90
37204;DHT22;23098;48.054;10.636;2023-12-20T15:06:35;3.80;99.90
37204;DHT22;23098;48.054;10.636;2023-12-20T15:09:01;3.70;99.90
37204;DHT22;23098;48.054;10.636;2023-12-20T15:11:27;3.70;99.90
37204;DHT22;23098;48.054;10.636;2023-12-20T15:13:53;3.80;99.90
37204;DHT22;23098;48.054;10.636;2023-12-20T15:16:23;3.90;99.90
37204;DHT22;23098;48.054;10.636;2023-12-20T15:18:49;3.90;99.90
37204;DHT22;23098;48.054;10.636;2023-12-20T15:21:16;3.90;99.90
37204;DHT22;23098;48.054;10.636;2023-12-20T15:23:41;3.90;99.90
37204;DHT22;23098;48.054;10.636;2023-12-20T15:26:19;3.90;99.90
37204;DHT22;23098;48.054;10.636;2023-12-20T15:28:45;3.90;99.90
37204;DHT22;23098;48.054;10.636;2023-12-20T15:31:10;3.90;99.90